sensor_id;sensor_type;location;lat;lon;timestamp;P1;durP1;ratioP1;P2;durP2;ratioP2
54823;SDS011;40724;53.196;5.980;2023-07-20T00:01:16;1.38;;;1.00;;
54823;SDS011;40724;53.196;5.980;2023-07-20T00:03:42;1.95;;;1.23;;
54823;SDS011;40724;53.196;5.980;2023-07-20T00:06:08;1.80;;;1.10;;
54823;SDS011;40724;53.196;5.980;2023-07-20T00:08:34;2.47;;;1.20;;
54823;SDS011;40724;53.196;5.980;2023-07-20T00:11:00;1.83;;;1.27;;
54823;SDS011;40724;53.196;5.980;2023-07-20T00:13:27;2.28;;;1.02;;
54823;SDS011;40724;53.196;5.980;2023-07-20T00:15:53;1.80;;;0.82;;
54823;SDS011;40724;53.196;5.980;2023-07-20T00:18:19;1.92;;;0.90;;
54823;SDS011;40724;53.196;5.980;2023-07-20T00:20:46;2.65;;;1.15;;
54823;SDS011;40724;53.196;5.980;2023-07-20T00:23:12;1.05;;;0.80;;
54823;SDS011;40724;53.196;5.980;2023-07-20T00:25:39;1.25;;;0.80;;
54823;SDS011;40724;53.196;5.980;2023-07-20T00:28:05;1.45;;;1.00;;
54823;SDS011;40724;53.196;5.980;2023-07-20T00:30:31;1.98;;;1.10;;
54823;SDS011;40724;53.196;5.980;2023-07-20T00:32:57;1.17;;;0.90;;
54823;SDS011;40724;53.196;5.980;2023-07-20T00:35:23;1.70;;;1.00;;
54823;SDS011;40724;53.196;5.980;2023-07-20T00:37:49;2.28;;;1.00;;
54823;SDS011;40724;53.196;5.980;2023-07-20T00:40:15;1.65;;;0.95;;
54823;SDS011;40724;53.196;5.980;2023-07-20T00:42:43;2.10;;;1.13;;
54823;SDS011;40724;53.196;5.980;2023-07-20T00:45:09;1.65;;;1.25;;
54823;SDS011;40724;53.196;5.980;2023-07-20T00:47:35;4.78;;;1.75;;
54823;SDS011;40724;53.196;5.980;2023-07-20T00:50:02;1.90;;;1.30;;
54823;SDS011;40724;53.196;5.980;2023-07-20T00:52:28;2.35;;;1.40;;
54823;SDS011;40724;53.196;5.980;2023-07-20T00:54:55;2.53;;;1.60;;
54823;SDS011;40724;53.196;5.980;2023-07-20T00:57:21;6.60;;;1.80;;
54823;SDS011;40724;53.196;5.980;2023-07-20T00:59:50;3.70;;;1.80;;
54823;SDS011;40724;53.196;5.980;2023-07-20T01:02:16;1.75;;;1.20;;
54823;SDS011;40724;53.196;5.980;2023-07-20T01:04:42;3.10;;;1.50;;
54823;SDS011;40724;53.196;5.980;2023-07-20T01:09:44;1.95;;;1.15;;
54823;SDS011;40724;53.196;5.980;2023-07-20T01:15:18;2.92;;;1.30;;
54823;SDS011;40724;53.196;5.980;2023-07-20T01:17:44;0.75;;;0.75;;
54823;SDS011;40724;53.196;5.980;2023-07-20T01:20:12;1.42;;;1.10;;
54823;SDS011;40724;53.196;5.980;2023-07-20T01:25:16;1.75;;;0.90;;
54823;SDS011;40724;53.196;5.980;2023-07-20T01:32:56;2.63;;;1.13;;
54823;SDS011;40724;53.196;5.980;2023-07-20T01:35:23;2.78;;;1.42;;
54823;SDS011;40724;53.196;5.980;2023-07-20T01:37:52;2.08;;;0.63;;
54823;SDS011;40724;53.196;5.980;2023-07-20T01:40:19;2.78;;;1.30;;
54823;SDS011;40724;53.196;5.980;2023-07-20T01:42:45;2.33;;;1.15;;
54823;SDS011;40724;53.196;5.980;2023-07-20T01:45:12;1.27;;;0.85;;
54823;SDS011;40724;53.196;5.980;2023-07-20T01:47:38;1.95;;;1.15;;
54823;SDS011;40724;53.196;5.980;2023-07-20T01:50:04;1.33;;;0.85;;
54823;SDS011;40724;53.196;5.980;2023-07-20T01:52:30;1.98;;;1.20;;
54823;SDS011;40724;53.196;5.980;2023-07-20T01:54:56;1.33;;;0.88;;
54823;SDS011;40724;53.196;5.980;2023-07-20T01:57:22;1.73;;;1.20;;
54823;SDS011;40724;53.196;5.980;2023-07-20T01:59:48;1.38;;;1.05;;
54823;SDS011;40724;53.196;5.980;2023-07-20T02:02:13;1.98;;;0.90;;
54823;SDS011;40724;53.196;5.980;2023-07-20T02:04:39;1.83;;;1.23;;
54823;SDS011;40724;53.196;5.980;2023-07-20T02:07:05;2.67;;;1.17;;
54823;SDS011;40724;53.196;5.980;2023-07-20T02:09:31;2.25;;;1.17;;
54823;SDS011;40724;53.196;5.980;2023-07-20T02:11:57;2.83;;;1.10;;
54823;SDS011;40724;53.196;5.980;2023-07-20T02:14:23;1.55;;;1.00;;
54823;SDS011;40724;53.196;5.980;2023-07-20T02:16:49;1.10;;;1.00;;
54823;SDS011;40724;53.196;5.980;2023-07-20T02:19:24;2.30;;;1.30;;
54823;SDS011;40724;53.196;5.980;2023-07-20T02:21:50;3.78;;;1.42;;
54823;SDS011;40724;53.196;5.980;2023-07-20T02:24:16;1.75;;;1.08;;
54823;SDS011;40724;53.196;5.980;2023-07-20T02:26:42;1.63;;;1.42;;
54823;SDS011;40724;53.196;5.980;2023-07-20T02:29:09;2.28;;;1.30;;
54823;SDS011;40724;53.196;5.980;2023-07-20T02:31:37;1.65;;;1.20;;
54823;SDS011;40724;53.196;5.980;2023-07-20T02:34:07;2.15;;;1.30;;
54823;SDS011;40724;53.196;5.980;2023-07-20T02:36:34;4.00;;;1.10;;
54823;SDS011;40724;53.196;5.980;2023-07-20T02:39:00;2.25;;;1.05;;
54823;SDS011;40724;53.196;5.980;2023-07-20T02:41:30;1.35;;;0.93;;
54823;SDS011;40724;53.196;5.980;2023-07-20T02:43:56;2.55;;;0.95;;
54823;SDS011;40724;53.196;5.980;2023-07-20T02:46:22;1.52;;;1.05;;
54823;SDS011;40724;53.196;5.980;2023-07-20T02:48:48;9.10;;;1.90;;
54823;SDS011;40724;53.196;5.980;2023-07-20T02:51:14;3.03;;;1.17;;
54823;SDS011;40724;53.196;5.980;2023-07-20T02:53:41;2.47;;;1.65;;
54823;SDS011;40724;53.196;5.980;2023-07-20T02:56:07;2.28;;;1.35;;
54823;SDS011;40724;53.196;5.980;2023-07-20T02:58:34;1.42;;;1.08;;
54823;SDS011;40724;53.196;5.980;2023-07-20T03:01:02;1.60;;;1.27;;
54823;SDS011;40724;53.196;5.980;2023-07-20T03:03:28;1.95;;;1.30;;
54823;SDS011;40724;53.196;5.980;2023-07-20T03:05:54;1.40;;;1.20;;
54823;SDS011;40724;53.196;5.980;2023-07-20T03:08:22;2.45;;;1.30;;
54823;SDS011;40724;53.196;5.980;2023-07-20T03:10:49;0.95;;;0.90;;
54823;SDS011;40724;53.196;5.980;2023-07-20T03:13:15;1.38;;;1.15;;
54823;SDS011;40724;53.196;5.980;2023-07-20T03:15:42;2.95;;;1.38;;
54823;SDS011;40724;53.196;5.980;2023-07-20T03:18:08;2.63;;;1.15;;
54823;SDS011;40724;53.196;5.980;2023-07-20T03:20:35;1.70;;;1.20;;
54823;SDS011;40724;53.196;5.980;2023-07-20T03:23:02;1.77;;;1.25;;
54823;SDS011;40724;53.196;5.980;2023-07-20T03:25:28;2.58;;;1.27;;
54823;SDS011;40724;53.196;5.980;2023-07-20T03:27:54;2.80;;;1.35;;
54823;SDS011;40724;53.196;5.980;2023-07-20T03:30:20;1.85;;;1.25;;
54823;SDS011;40724;53.196;5.980;2023-07-20T03:32:46;1.70;;;0.98;;
54823;SDS011;40724;53.196;5.980;2023-07-20T03:35:12;2.08;;;1.25;;
54823;SDS011;40724;53.196;5.980;2023-07-20T03:37:40;1.95;;;1.17;;
54823;SDS011;40724;53.196;5.980;2023-07-20T03:40:07;1.77;;;1.10;;
54823;SDS011;40724;53.196;5.980;2023-07-20T03:42:33;4.05;;;1.30;;
54823;SDS011;40724;53.196;5.980;2023-07-20T03:44:59;3.13;;;1.30;;
54823;SDS011;40724;53.196;5.980;2023-07-20T03:47:26;3.30;;;1.20;;
54823;SDS011;40724;53.196;5.980;2023-07-20T03:49:52;2.60;;;1.02;;
54823;SDS011;40724;53.196;5.980;2023-07-20T03:52:18;1.85;;;1.10;;
54823;SDS011;40724;53.196;5.980;2023-07-20T03:54:44;1.67;;;1.42;;
54823;SDS011;40724;53.196;5.980;2023-07-20T03:57:10;3.28;;;1.17;;
54823;SDS011;40724;53.196;5.980;2023-07-20T03:59:37;1.88;;;1.40;;
54823;SDS011;40724;53.196;5.980;2023-07-20T04:02:03;7.70;;;1.85;;
54823;SDS011;40724;53.196;5.980;2023-07-20T04:04:30;2.47;;;1.85;;
54823;SDS011;40724;53.196;5.980;2023-07-20T04:06:56;2.90;;;1.38;;
54823;SDS011;40724;53.196;5.980;2023-07-20T04:09:23;1.65;;;1.40;;
54823;SDS011;40724;53.196;5.980;2023-07-20T04:11:49;6.35;;;1.23;;
54823;SDS011;40724;53.196;5.980;2023-07-20T04:14:15;2.40;;;1.88;;
54823;SDS011;40724;53.196;5.980;2023-07-20T04:16:41;4.07;;;1.55;;
54823;SDS011;40724;53.196;5.980;2023-07-20T04:19:07;1.42;;;0.90;;
54823;SDS011;40724;53.196;5.980;2023-07-20T04:21:39;4.80;;;1.30;;
54823;SDS011;40724;53.196;5.980;2023-07-20T04:24:05;2.27;;;1.30;;
54823;SDS011;40724;53.196;5.980;2023-07-20T04:26:32;3.58;;;1.40;;
54823;SDS011;40724;53.196;5.980;2023-07-20T04:28:58;2.30;;;1.52;;
54823;SDS011;40724;53.196;5.980;2023-07-20T04:31:24;7.78;;;1.65;;
54823;SDS011;40724;53.196;5.980;2023-07-20T04:33:51;1.83;;;1.33;;
54823;SDS011;40724;53.196;5.980;2023-07-20T04:36:17;2.38;;;1.25;;
54823;SDS011;40724;53.196;5.980;2023-07-20T04:38:47;7.43;;;1.20;;
54823;SDS011;40724;53.196;5.980;2023-07-20T04:41:14;2.10;;;1.20;;
54823;SDS011;40724;53.196;5.980;2023-07-20T04:43:43;3.17;;;1.60;;
54823;SDS011;40724;53.196;5.980;2023-07-20T04:46:10;2.55;;;1.40;;
54823;SDS011;40724;53.196;5.980;2023-07-20T04:48:36;2.33;;;1.50;;
54823;SDS011;40724;53.196;5.980;2023-07-20T04:51:02;2.58;;;1.30;;
54823;SDS011;40724;53.196;5.980;2023-07-20T04:53:28;3.45;;;1.70;;
54823;SDS011;40724;53.196;5.980;2023-07-20T04:55:56;3.47;;;1.80;;
54823;SDS011;40724;53.196;5.980;2023-07-20T04:58:22;4.32;;;1.60;;
54823;SDS011;40724;53.196;5.980;2023-07-20T05:00:48;6.63;;;1.42;;
54823;SDS011;40724;53.196;5.980;2023-07-20T05:03:15;3.13;;;1.50;;
54823;SDS011;40724;53.196;5.980;2023-07-20T05:05:41;4.30;;;1.63;;
54823;SDS011;40724;53.196;5.980;2023-07-20T05:08:07;2.63;;;1.55;;
54823;SDS011;40724;53.196;5.980;2023-07-20T05:10:33;2.35;;;1.63;;
54823;SDS011;40724;53.196;5.980;2023-07-20T05:12:59;3.08;;;1.67;;
54823;SDS011;40724;53.196;5.980;2023-07-20T05:15:26;2.28;;;1.33;;
54823;SDS011;40724;53.196;5.980;2023-07-20T05:17:52;2.35;;;1.50;;
54823;SDS011;40724;53.196;5.980;2023-07-20T05:20:18;2.92;;;1.40;;
54823;SDS011;40724;53.196;5.980;2023-07-20T05:22:45;1.60;;;1.10;;
54823;SDS011;40724;53.196;5.980;2023-07-20T05:25:11;1.63;;;1.30;;
54823;SDS011;40724;53.196;5.980;2023-07-20T05:27:38;2.10;;;1.50;;
54823;SDS011;40724;53.196;5.980;2023-07-20T05:30:04;7.40;;;1.63;;
54823;SDS011;40724;53.196;5.980;2023-07-20T05:32:31;1.63;;;1.20;;
54823;SDS011;40724;53.196;5.980;2023-07-20T05:34:57;3.78;;;2.10;;
54823;SDS011;40724;53.196;5.980;2023-07-20T05:37:23;2.15;;;1.10;;
54823;SDS011;40724;53.196;5.980;2023-07-20T05:39:49;4.68;;;1.05;;
54823;SDS011;40724;53.196;5.980;2023-07-20T05:42:16;6.70;;;1.42;;
54823;SDS011;40724;53.196;5.980;2023-07-20T05:44:42;1.85;;;1.20;;
54823;SDS011;40724;53.196;5.980;2023-07-20T05:47:08;1.75;;;1.33;;
54823;SDS011;40724;53.196;5.980;2023-07-20T05:49:35;1.65;;;1.42;;
54823;SDS011;40724;53.196;5.980;2023-07-20T05:52:01;4.72;;;1.65;;
54823;SDS011;40724;53.196;5.980;2023-07-20T05:54:27;3.35;;;1.50;;
54823;SDS011;40724;53.196;5.980;2023-07-20T05:56:54;2.40;;;1.92;;
54823;SDS011;40724;53.196;5.980;2023-07-20T05:59:20;3.65;;;2.00;;
54823;SDS011;40724;53.196;5.980;2023-07-20T06:01:46;3.78;;;2.03;;
54823;SDS011;40724;53.196;5.980;2023-07-20T06:04:13;4.82;;;2.30;;
54823;SDS011;40724;53.196;5.980;2023-07-20T06:06:39;2.75;;;1.98;;
54823;SDS011;40724;53.196;5.980;2023-07-20T06:09:06;2.78;;;1.58;;
54823;SDS011;40724;53.196;5.980;2023-07-20T06:11:36;3.97;;;1.80;;
54823;SDS011;40724;53.196;5.980;2023-07-20T06:14:03;2.60;;;1.70;;
54823;SDS011;40724;53.196;5.980;2023-07-20T06:16:29;1.52;;;1.33;;
54823;SDS011;40724;53.196;5.980;2023-07-20T06:18:55;2.88;;;1.30;;
54823;SDS011;40724;53.196;5.980;2023-07-20T06:21:22;1.88;;;1.45;;
54823;SDS011;40724;53.196;5.980;2023-07-20T06:23:48;2.58;;;1.67;;
54823;SDS011;40724;53.196;5.980;2023-07-20T06:26:14;2.40;;;1.25;;
54823;SDS011;40724;53.196;5.980;2023-07-20T06:28:41;2.78;;;1.35;;
54823;SDS011;40724;53.196;5.980;2023-07-20T06:31:07;4.43;;;1.83;;
54823;SDS011;40724;53.196;5.980;2023-07-20T06:33:33;2.70;;;1.00;;
54823;SDS011;40724;53.196;5.980;2023-07-20T06:36:02;2.35;;;1.50;;
54823;SDS011;40724;53.196;5.980;2023-07-20T06:38:28;2.95;;;1.45;;
54823;SDS011;40724;53.196;5.980;2023-07-20T06:40:54;1.60;;;1.10;;
54823;SDS011;40724;53.196;5.980;2023-07-20T06:43:20;2.95;;;1.23;;
54823;SDS011;40724;53.196;5.980;2023-07-20T06:45:53;1.83;;;1.38;;
54823;SDS011;40724;53.196;5.980;2023-07-20T06:50:45;3.20;;;1.42;;
54823;SDS011;40724;53.196;5.980;2023-07-20T06:53:11;2.72;;;1.55;;
54823;SDS011;40724;53.196;5.980;2023-07-20T06:55:37;4.43;;;2.25;;
54823;SDS011;40724;53.196;5.980;2023-07-20T06:58:04;5.75;;;1.80;;
54823;SDS011;40724;53.196;5.980;2023-07-20T07:00:30;3.83;;;1.70;;
54823;SDS011;40724;53.196;5.980;2023-07-20T07:02:56;4.65;;;1.63;;
54823;SDS011;40724;53.196;5.980;2023-07-20T07:05:22;6.28;;;1.90;;
54823;SDS011;40724;53.196;5.980;2023-07-20T07:07:49;3.45;;;1.63;;
54823;SDS011;40724;53.196;5.980;2023-07-20T07:10:15;2.97;;;1.52;;
54823;SDS011;40724;53.196;5.980;2023-07-20T07:12:41;2.60;;;1.40;;
54823;SDS011;40724;53.196;5.980;2023-07-20T07:15:07;3.17;;;1.85;;
54823;SDS011;40724;53.196;5.980;2023-07-20T07:17:35;5.07;;;1.67;;
54823;SDS011;40724;53.196;5.980;2023-07-20T07:20:02;4.53;;;2.35;;
54823;SDS011;40724;53.196;5.980;2023-07-20T07:22:29;2.83;;;1.83;;
54823;SDS011;40724;53.196;5.980;2023-07-20T07:24:55;3.85;;;1.85;;
54823;SDS011;40724;53.196;5.980;2023-07-20T07:27:22;6.60;;;2.42;;
54823;SDS011;40724;53.196;5.980;2023-07-20T07:29:48;8.75;;;2.10;;
54823;SDS011;40724;53.196;5.980;2023-07-20T07:32:14;3.45;;;2.33;;
54823;SDS011;40724;53.196;5.980;2023-07-20T07:34:41;4.10;;;2.60;;
54823;SDS011;40724;53.196;5.980;2023-07-20T07:37:07;3.08;;;2.08;;
54823;SDS011;40724;53.196;5.980;2023-07-20T07:39:33;3.58;;;2.20;;
54823;SDS011;40724;53.196;5.980;2023-07-20T07:41:59;3.72;;;2.35;;
54823;SDS011;40724;53.196;5.980;2023-07-20T07:44:25;5.72;;;2.17;;
54823;SDS011;40724;53.196;5.980;2023-07-20T07:46:52;3.92;;;1.85;;
54823;SDS011;40724;53.196;5.980;2023-07-20T07:49:18;5.53;;;1.75;;
54823;SDS011;40724;53.196;5.980;2023-07-20T07:51:44;5.18;;;2.53;;
54823;SDS011;40724;53.196;5.980;2023-07-20T07:54:11;4.70;;;2.80;;
54823;SDS011;40724;53.196;5.980;2023-07-20T07:56:37;5.10;;;2.42;;
54823;SDS011;40724;53.196;5.980;2023-07-20T07:59:03;3.67;;;2.10;;
54823;SDS011;40724;53.196;5.980;2023-07-20T08:01:29;5.10;;;2.47;;
54823;SDS011;40724;53.196;5.980;2023-07-20T08:03:55;6.03;;;2.72;;
54823;SDS011;40724;53.196;5.980;2023-07-20T08:06:22;4.35;;;2.00;;
54823;SDS011;40724;53.196;5.980;2023-07-20T08:08:49;3.65;;;1.73;;
54823;SDS011;40724;53.196;5.980;2023-07-20T08:11:15;2.85;;;1.65;;
54823;SDS011;40724;53.196;5.980;2023-07-20T08:13:43;5.55;;;2.13;;
54823;SDS011;40724;53.196;5.980;2023-07-20T08:16:09;3.00;;;1.80;;
54823;SDS011;40724;53.196;5.980;2023-07-20T08:18:34;5.03;;;2.40;;
54823;SDS011;40724;53.196;5.980;2023-07-20T08:21:00;4.10;;;1.77;;
54823;SDS011;40724;53.196;5.980;2023-07-20T08:23:26;3.60;;;1.95;;
54823;SDS011;40724;53.196;5.980;2023-07-20T08:25:53;6.78;;;2.60;;
54823;SDS011;40724;53.196;5.980;2023-07-20T08:28:19;3.38;;;2.15;;
54823;SDS011;40724;53.196;5.980;2023-07-20T08:30:46;8.35;;;2.67;;
54823;SDS011;40724;53.196;5.980;2023-07-20T08:33:13;5.53;;;2.20;;
54823;SDS011;40724;53.196;5.980;2023-07-20T08:35:40;3.97;;;2.70;;
54823;SDS011;40724;53.196;5.980;2023-07-20T08:38:06;4.38;;;2.28;;
54823;SDS011;40724;53.196;5.980;2023-07-20T08:40:33;3.85;;;1.70;;
54823;SDS011;40724;53.196;5.980;2023-07-20T08:42:59;4.53;;;1.98;;
54823;SDS011;40724;53.196;5.980;2023-07-20T08:45:26;3.42;;;1.80;;
54823;SDS011;40724;53.196;5.980;2023-07-20T08:47:55;3.15;;;1.48;;
54823;SDS011;40724;53.196;5.980;2023-07-20T08:50:22;3.20;;;1.50;;
54823;SDS011;40724;53.196;5.980;2023-07-20T08:52:49;3.70;;;1.45;;
54823;SDS011;40724;53.196;5.980;2023-07-20T08:55:18;4.55;;;1.50;;
54823;SDS011;40724;53.196;5.980;2023-07-20T08:57:45;1.70;;;1.10;;
54823;SDS011;40724;53.196;5.980;2023-07-20T09:00:12;2.33;;;1.20;;
54823;SDS011;40724;53.196;5.980;2023-07-20T09:02:39;2.35;;;1.33;;
54823;SDS011;40724;53.196;5.980;2023-07-20T09:05:07;1.92;;;1.02;;
54823;SDS011;40724;53.196;5.980;2023-07-20T09:07:35;2.80;;;1.23;;
54823;SDS011;40724;53.196;5.980;2023-07-20T09:10:02;2.55;;;1.60;;
54823;SDS011;40724;53.196;5.980;2023-07-20T09:12:32;2.42;;;1.35;;
54823;SDS011;40724;53.196;5.980;2023-07-20T09:14:58;3.10;;;1.70;;
54823;SDS011;40724;53.196;5.980;2023-07-20T09:17:25;1.95;;;1.17;;
54823;SDS011;40724;53.196;5.980;2023-07-20T09:19:52;2.78;;;1.65;;
54823;SDS011;40724;53.196;5.980;2023-07-20T09:22:18;4.90;;;1.60;;
54823;SDS011;40724;53.196;5.980;2023-07-20T09:24:44;3.13;;;1.40;;
54823;SDS011;40724;53.196;5.980;2023-07-20T09:27:10;3.83;;;1.73;;
54823;SDS011;40724;53.196;5.980;2023-07-20T09:29:49;5.43;;;1.90;;
54823;SDS011;40724;53.196;5.980;2023-07-20T09:32:18;5.75;;;1.52;;
54823;SDS011;40724;53.196;5.980;2023-07-20T09:34:47;4.43;;;1.75;;
54823;SDS011;40724;53.196;5.980;2023-07-20T09:37:13;3.88;;;1.55;;
54823;SDS011;40724;53.196;5.980;2023-07-20T09:39:43;4.30;;;1.90;;
54823;SDS011;40724;53.196;5.980;2023-07-20T09:42:10;4.47;;;1.90;;
54823;SDS011;40724;53.196;5.980;2023-07-20T09:44:37;2.88;;;1.40;;
54823;SDS011;40724;53.196;5.980;2023-07-20T09:47:04;4.18;;;1.70;;
54823;SDS011;40724;53.196;5.980;2023-07-20T09:49:30;2.53;;;1.38;;
54823;SDS011;40724;53.196;5.980;2023-07-20T09:51:59;3.45;;;1.73;;
54823;SDS011;40724;53.196;5.980;2023-07-20T09:54:27;3.45;;;1.42;;
54823;SDS011;40724;53.196;5.980;2023-07-20T09:56:54;2.92;;;1.48;;
54823;SDS011;40724;53.196;5.980;2023-07-20T09:59:21;3.60;;;1.75;;
54823;SDS011;40724;53.196;5.980;2023-07-20T10:01:47;5.35;;;1.75;;
54823;SDS011;40724;53.196;5.980;2023-07-20T10:04:15;2.88;;;1.35;;
54823;SDS011;40724;53.196;5.980;2023-07-20T10:06:42;2.80;;;1.48;;
54823;SDS011;40724;53.196;5.980;2023-07-20T10:09:09;4.13;;;1.75;;
54823;SDS011;40724;53.196;5.980;2023-07-20T10:11:37;2.75;;;1.40;;
54823;SDS011;40724;53.196;5.980;2023-07-20T10:14:08;2.17;;;1.63;;
54823;SDS011;40724;53.196;5.980;2023-07-20T10:16:39;2.47;;;1.67;;
54823;SDS011;40724;53.196;5.980;2023-07-20T10:19:07;3.33;;;1.35;;
54823;SDS011;40724;53.196;5.980;2023-07-20T10:21:35;2.58;;;1.63;;
54823;SDS011;40724;53.196;5.980;2023-07-20T10:24:05;3.47;;;1.17;;
54823;SDS011;40724;53.196;5.980;2023-07-20T10:26:32;10.48;;;2.35;;
54823;SDS011;40724;53.196;5.980;2023-07-20T10:28:58;4.03;;;1.65;;
54823;SDS011;40724;53.196;5.980;2023-07-20T10:31:25;3.15;;;1.50;;
54823;SDS011;40724;53.196;5.980;2023-07-20T10:33:54;4.43;;;1.45;;
54823;SDS011;40724;53.196;5.980;2023-07-20T10:36:27;3.15;;;1.45;;
54823;SDS011;40724;53.196;5.980;2023-07-20T10:38:54;2.83;;;1.33;;
54823;SDS011;40724;53.196;5.980;2023-07-20T10:41:21;2.83;;;1.75;;
54823;SDS011;40724;53.196;5.980;2023-07-20T10:43:55;4.03;;;1.80;;
54823;SDS011;40724;53.196;5.980;2023-07-20T10:49:05;2.70;;;1.30;;
54823;SDS011;40724;53.196;5.980;2023-07-20T10:51:42;3.03;;;1.38;;
54823;SDS011;40724;53.196;5.980;2023-07-20T10:56:44;2.33;;;1.45;;
54823;SDS011;40724;53.196;5.980;2023-07-20T11:01:54;6.63;;;1.40;;
54823;SDS011;40724;53.196;5.980;2023-07-20T11:04:41;6.85;;;1.58;;
54823;SDS011;40724;53.196;5.980;2023-07-20T11:07:07;6.18;;;2.22;;
54823;SDS011;40724;53.196;5.980;2023-07-20T11:09:34;3.67;;;2.22;;
54823;SDS011;40724;53.196;5.980;2023-07-20T11:12:13;4.45;;;2.17;;
54823;SDS011;40724;53.196;5.980;2023-07-20T11:14:43;2.58;;;1.80;;
54823;SDS011;40724;53.196;5.980;2023-07-20T11:17:13;3.03;;;1.90;;
54823;SDS011;40724;53.196;5.980;2023-07-20T11:19:39;5.30;;;1.92;;
54823;SDS011;40724;53.196;5.980;2023-07-20T11:22:06;3.60;;;1.70;;
54823;SDS011;40724;53.196;5.980;2023-07-20T11:24:39;3.65;;;1.73;;
54823;SDS011;40724;53.196;5.980;2023-07-20T11:27:05;4.13;;;1.88;;
54823;SDS011;40724;53.196;5.980;2023-07-20T11:29:32;5.30;;;1.65;;
54823;SDS011;40724;53.196;5.980;2023-07-20T11:31:58;3.85;;;1.60;;
54823;SDS011;40724;53.196;5.980;2023-07-20T11:34:24;3.00;;;1.60;;
54823;SDS011;40724;53.196;5.980;2023-07-20T11:36:51;2.88;;;1.70;;
54823;SDS011;40724;53.196;5.980;2023-07-20T11:39:18;5.30;;;1.90;;
54823;SDS011;40724;53.196;5.980;2023-07-20T11:41:55;5.47;;;1.75;;
54823;SDS011;40724;53.196;5.980;2023-07-20T11:44:22;2.60;;;1.73;;
54823;SDS011;40724;53.196;5.980;2023-07-20T11:47:01;7.05;;;1.92;;
54823;SDS011;40724;53.196;5.980;2023-07-20T11:49:28;3.72;;;1.85;;
54823;SDS011;40724;53.196;5.980;2023-07-20T11:51:55;3.78;;;1.52;;
54823;SDS011;40724;53.196;5.980;2023-07-20T11:54:22;4.03;;;2.13;;
54823;SDS011;40724;53.196;5.980;2023-07-20T11:56:52;2.63;;;2.05;;
54823;SDS011;40724;53.196;5.980;2023-07-20T11:59:19;2.33;;;1.48;;
54823;SDS011;40724;53.196;5.980;2023-07-20T12:01:45;3.00;;;1.60;;
54823;SDS011;40724;53.196;5.980;2023-07-20T12:04:11;5.55;;;1.77;;
54823;SDS011;40724;53.196;5.980;2023-07-20T12:06:37;3.65;;;2.10;;
54823;SDS011;40724;53.196;5.980;2023-07-20T12:09:03;3.83;;;1.80;;
54823;SDS011;40724;53.196;5.980;2023-07-20T12:11:30;3.13;;;1.40;;
54823;SDS011;40724;53.196;5.980;2023-07-20T12:13:57;4.38;;;1.75;;
54823;SDS011;40724;53.196;5.980;2023-07-20T12:16:26;5.10;;;2.05;;
54823;SDS011;40724;53.196;5.980;2023-07-20T12:19:02;3.22;;;1.48;;
54823;SDS011;40724;53.196;5.980;2023-07-20T12:21:29;3.53;;;1.85;;
54823;SDS011;40724;53.196;5.980;2023-07-20T12:23:59;2.85;;;1.83;;
54823;SDS011;40724;53.196;5.980;2023-07-20T12:26:25;4.53;;;2.17;;
54823;SDS011;40724;53.196;5.980;2023-07-20T12:28:52;2.95;;;1.85;;
54823;SDS011;40724;53.196;5.980;2023-07-20T12:31:18;3.90;;;2.17;;
54823;SDS011;40724;53.196;5.980;2023-07-20T12:33:46;3.08;;;2.30;;
54823;SDS011;40724;53.196;5.980;2023-07-20T12:36:12;6.40;;;1.55;;
54823;SDS011;40724;53.196;5.980;2023-07-20T12:38:38;2.72;;;1.58;;
54823;SDS011;40724;53.196;5.980;2023-07-20T12:41:06;2.90;;;1.73;;
54823;SDS011;40724;53.196;5.980;2023-07-20T12:43:33;2.97;;;1.90;;
54823;SDS011;40724;53.196;5.980;2023-07-20T12:45:59;4.43;;;2.03;;
54823;SDS011;40724;53.196;5.980;2023-07-20T12:48:25;4.22;;;1.80;;
54823;SDS011;40724;53.196;5.980;2023-07-20T12:50:51;2.67;;;1.35;;
54823;SDS011;40724;53.196;5.980;2023-07-20T12:53:18;2.13;;;1.42;;
54823;SDS011;40724;53.196;5.980;2023-07-20T12:55:44;4.32;;;1.50;;
54823;SDS011;40724;53.196;5.980;2023-07-20T12:58:11;4.07;;;1.23;;
54823;SDS011;40724;53.196;5.980;2023-07-20T13:00:38;2.85;;;1.60;;
54823;SDS011;40724;53.196;5.980;2023-07-20T13:03:04;2.88;;;1.55;;
54823;SDS011;40724;53.196;5.980;2023-07-20T13:05:32;2.85;;;1.33;;
54823;SDS011;40724;53.196;5.980;2023-07-20T13:08:01;3.85;;;1.70;;
54823;SDS011;40724;53.196;5.980;2023-07-20T13:10:30;1.83;;;1.50;;
54823;SDS011;40724;53.196;5.980;2023-07-20T13:12:56;4.45;;;1.40;;
54823;SDS011;40724;53.196;5.980;2023-07-20T13:15:24;2.78;;;1.23;;
54823;SDS011;40724;53.196;5.980;2023-07-20T13:17:50;2.05;;;1.23;;
54823;SDS011;40724;53.196;5.980;2023-07-20T13:20:16;2.97;;;1.85;;
54823;SDS011;40724;53.196;5.980;2023-07-20T13:22:43;2.08;;;1.27;;
54823;SDS011;40724;53.196;5.980;2023-07-20T13:25:09;5.18;;;1.38;;
54823;SDS011;40724;53.196;5.980;2023-07-20T13:27:36;2.58;;;1.20;;
54823;SDS011;40724;53.196;5.980;2023-07-20T13:30:02;1.80;;;1.38;;
54823;SDS011;40724;53.196;5.980;2023-07-20T13:32:31;2.05;;;1.27;;
54823;SDS011;40724;53.196;5.980;2023-07-20T13:34:58;2.67;;;1.02;;
54823;SDS011;40724;53.196;5.980;2023-07-20T13:37:24;2.17;;;1.05;;
54823;SDS011;40724;53.196;5.980;2023-07-20T13:39:52;1.52;;;1.15;;
54823;SDS011;40724;53.196;5.980;2023-07-20T13:42:18;2.88;;;1.42;;
54823;SDS011;40724;53.196;5.980;2023-07-20T13:44:50;3.80;;;1.20;;
54823;SDS011;40724;53.196;5.980;2023-07-20T13:47:16;1.90;;;1.05;;
54823;SDS011;40724;53.196;5.980;2023-07-20T13:49:42;2.10;;;1.30;;
54823;SDS011;40724;53.196;5.980;2023-07-20T13:52:09;4.32;;;1.40;;
54823;SDS011;40724;53.196;5.980;2023-07-20T13:54:35;4.50;;;1.65;;
54823;SDS011;40724;53.196;5.980;2023-07-20T13:57:01;2.17;;;1.30;;
54823;SDS011;40724;53.196;5.980;2023-07-20T13:59:27;1.73;;;1.05;;
54823;SDS011;40724;53.196;5.980;2023-07-20T14:01:53;1.67;;;1.10;;
54823;SDS011;40724;53.196;5.980;2023-07-20T14:04:20;3.30;;;1.50;;
54823;SDS011;40724;53.196;5.980;2023-07-20T14:06:46;1.98;;;1.20;;
54823;SDS011;40724;53.196;5.980;2023-07-20T14:09:12;1.63;;;1.20;;
54823;SDS011;40724;53.196;5.980;2023-07-20T14:11:38;2.85;;;1.40;;
54823;SDS011;40724;53.196;5.980;2023-07-20T14:14:04;2.58;;;1.17;;
54823;SDS011;40724;53.196;5.980;2023-07-20T14:16:30;2.47;;;1.10;;
54823;SDS011;40724;53.196;5.980;2023-07-20T14:18:57;2.63;;;1.27;;
54823;SDS011;40724;53.196;5.980;2023-07-20T14:21:24;2.35;;;1.05;;
54823;SDS011;40724;53.196;5.980;2023-07-20T14:23:50;2.28;;;1.15;;
54823;SDS011;40724;53.196;5.980;2023-07-20T14:26:20;2.97;;;2.10;;
54823;SDS011;40724;53.196;5.980;2023-07-20T14:28:46;3.35;;;1.75;;
54823;SDS011;40724;53.196;5.980;2023-07-20T14:31:13;3.00;;;1.77;;
54823;SDS011;40724;53.196;5.980;2023-07-20T14:33:39;3.15;;;1.60;;
54823;SDS011;40724;53.196;5.980;2023-07-20T14:36:05;2.78;;;1.35;;
54823;SDS011;40724;53.196;5.980;2023-07-20T14:38:33;1.98;;;1.17;;
54823;SDS011;40724;53.196;5.980;2023-07-20T14:41:00;2.50;;;1.60;;
54823;SDS011;40724;53.196;5.980;2023-07-20T14:43:26;2.45;;;1.20;;
54823;SDS011;40724;53.196;5.980;2023-07-20T14:45:52;3.30;;;1.20;;
54823;SDS011;40724;53.196;5.980;2023-07-20T14:48:19;2.90;;;1.00;;
54823;SDS011;40724;53.196;5.980;2023-07-20T14:50:46;1.33;;;0.88;;
54823;SDS011;40724;53.196;5.980;2023-07-20T14:53:13;2.33;;;0.98;;
54823;SDS011;40724;53.196;5.980;2023-07-20T14:55:39;2.05;;;1.20;;
54823;SDS011;40724;53.196;5.980;2023-07-20T14:58:05;2.38;;;0.90;;
54823;SDS011;40724;53.196;5.980;2023-07-20T15:00:31;2.22;;;1.20;;
54823;SDS011;40724;53.196;5.980;2023-07-20T15:02:57;2.55;;;1.48;;
54823;SDS011;40724;53.196;5.980;2023-07-20T15:05:24;3.53;;;1.50;;
54823;SDS011;40724;53.196;5.980;2023-07-20T15:07:52;5.07;;;1.58;;
54823;SDS011;40724;53.196;5.980;2023-07-20T15:10:18;14.48;;;3.13;;